sensor_id;sensor_type;location;lat;lon;timestamp;P1;durP1;ratioP1;P2;durP2;ratioP2
13425;SDS011;6785;57.918;12.530;2022-12-07T00:01:21;22.40;;;8.73;;
13425;SDS011;6785;57.918;12.530;2022-12-07T00:03:50;15.33;;;7.50;;
13425;SDS011;6785;57.918;12.530;2022-12-07T00:06:18;13.90;;;8.10;;
13425;SDS011;6785;57.918;12.530;2022-12-07T00:08:46;19.07;;;7.50;;
13425;SDS011;6785;57.918;12.530;2022-12-07T00:11:15;15.10;;;7.37;;
13425;SDS011;6785;57.918;12.530;2022-12-07T00:13:43;12.90;;;7.30;;
13425;SDS011;6785;57.918;12.530;2022-12-07T00:16:11;16.60;;;7.90;;
13425;SDS011;6785;57.918;12.530;2022-12-07T00:18:39;19.20;;;8.80;;
13425;SDS011;6785;57.918;12.530;2022-12-07T00:21:09;15.93;;;7.97;;
13425;SDS011;6785;57.918;12.530;2022-12-07T00:23:37;16.33;;;7.90;;
13425;SDS011;6785;57.918;12.530;2022-12-07T00:26:05;14.33;;;7.10;;
13425;SDS011;6785;57.918;12.530;2022-12-07T00:28:33;12.50;;;7.00;;
13425;SDS011;6785;57.918;12.530;2022-12-07T00:31:01;16.03;;;8.17;;
13425;SDS011;6785;57.918;12.530;2022-12-07T00:33:30;15.53;;;7.40;;
13425;SDS011;6785;57.918;12.530;2022-12-07T00:35:57;13.00;;;6.47;;
13425;SDS011;6785;57.918;12.530;2022-12-07T00:38:24;12.80;;;5.67;;
13425;SDS011;6785;57.918;12.530;2022-12-07T00:40:55;12.63;;;6.40;;
13425;SDS011;6785;57.918;12.530;2022-12-07T00:43:22;13.50;;;6.20;;
13425;SDS011;6785;57.918;12.530;2022-12-07T00:45:50;13.63;;;6.30;;
13425;SDS011;6785;57.918;12.530;2022-12-07T00:48:17;13.03;;;6.07;;
13425;SDS011;6785;57.918;12.530;2022-12-07T00:50:44;14.30;;;6.37;;
13425;SDS011;6785;57.918;12.530;2022-12-07T00:53:11;15.47;;;5.80;;
13425;SDS011;6785;57.918;12.530;2022-12-07T00:55:38;14.13;;;5.50;;
13425;SDS011;6785;57.918;12.530;2022-12-07T00:58:05;11.20;;;6.70;;
13425;SDS011;6785;57.918;12.530;2022-12-07T01:00:32;15.67;;;6.53;;
13425;SDS011;6785;57.918;12.530;2022-12-07T01:03:01;16.07;;;7.10;;
13425;SDS011;6785;57.918;12.530;2022-12-07T01:05:27;13.50;;;6.60;;
13425;SDS011;6785;57.918;12.530;2022-12-07T01:07:54;14.30;;;5.97;;
13425;SDS011;6785;57.918;12.530;2022-12-07T01:10:21;14.17;;;6.40;;
13425;SDS011;6785;57.918;12.530;2022-12-07T01:12:47;14.47;;;7.03;;
13425;SDS011;6785;57.918;12.530;2022-12-07T01:15:14;13.83;;;7.67;;
13425;SDS011;6785;57.918;12.530;2022-12-07T01:17:41;12.60;;;6.60;;
13425;SDS011;6785;57.918;12.530;2022-12-07T01:20:10;15.27;;;6.90;;
13425;SDS011;6785;57.918;12.530;2022-12-07T01:22:38;15.93;;;7.70;;
13425;SDS011;6785;57.918;12.530;2022-12-07T01:25:05;11.77;;;6.40;;
13425;SDS011;6785;57.918;12.530;2022-12-07T01:27:33;18.03;;;7.03;;
13425;SDS011;6785;57.918;12.530;2022-12-07T01:30:00;13.90;;;7.07;;
13425;SDS011;6785;57.918;12.530;2022-12-07T01:32:27;16.10;;;7.70;;
13425;SDS011;6785;57.918;12.530;2022-12-07T01:34:55;16.37;;;7.03;;
13425;SDS011;6785;57.918;12.530;2022-12-07T01:37:23;16.57;;;7.40;;
13425;SDS011;6785;57.918;12.530;2022-12-07T01:39:50;15.90;;;8.20;;
13425;SDS011;6785;57.918;12.530;2022-12-07T01:42:17;17.33;;;7.40;;
13425;SDS011;6785;57.918;12.530;2022-12-07T01:48:00;16.90;;;7.17;;
13425;SDS011;6785;57.918;12.530;2022-12-07T01:50:27;18.23;;;7.30;;
13425;SDS011;6785;57.918;12.530;2022-12-07T01:52:58;12.30;;;7.33;;
13425;SDS011;6785;57.918;12.530;2022-12-07T01:55:27;11.97;;;6.77;;
13425;SDS011;6785;57.918;12.530;2022-12-07T01:57:55;13.97;;;6.83;;
13425;SDS011;6785;57.918;12.530;2022-12-07T02:00:22;12.43;;;7.17;;
13425;SDS011;6785;57.918;12.530;2022-12-07T02:02:51;16.33;;;6.57;;
13425;SDS011;6785;57.918;12.530;2022-12-07T02:05:21;12.73;;;6.70;;
13425;SDS011;6785;57.918;12.530;2022-12-07T02:07:50;12.17;;;6.77;;
13425;SDS011;6785;57.918;12.530;2022-12-07T02:10:21;13.77;;;6.90;;
13425;SDS011;6785;57.918;12.530;2022-12-07T02:12:50;13.27;;;6.17;;
13425;SDS011;6785;57.918;12.530;2022-12-07T02:15:20;16.40;;;7.03;;
13425;SDS011;6785;57.918;12.530;2022-12-07T02:17:54;12.67;;;6.23;;
13425;SDS011;6785;57.918;12.530;2022-12-07T02:20:27;15.20;;;6.97;;
13425;SDS011;6785;57.918;12.530;2022-12-07T02:29:04;11.57;;;6.77;;
13425;SDS011;6785;57.918;12.530;2022-12-07T02:31:41;16.10;;;6.63;;
13425;SDS011;6785;57.918;12.530;2022-12-07T02:34:12;13.50;;;6.53;;
13425;SDS011;6785;57.918;12.530;2022-12-07T02:36:50;16.20;;;7.20;;
13425;SDS011;6785;57.918;12.530;2022-12-07T02:39:20;12.63;;;6.97;;
13425;SDS011;6785;57.918;12.530;2022-12-07T02:41:54;13.13;;;6.23;;
13425;SDS011;6785;57.918;12.530;2022-12-07T02:44:26;14.17;;;6.87;;
13425;SDS011;6785;57.918;12.530;2022-12-07T02:46:55;17.07;;;8.50;;
13425;SDS011;6785;57.918;12.530;2022-12-07T02:49:25;14.60;;;8.17;;
13425;SDS011;6785;57.918;12.530;2022-12-07T02:51:54;14.20;;;7.27;;
13425;SDS011;6785;57.918;12.530;2022-12-07T02:54:20;10.90;;;5.97;;
13425;SDS011;6785;57.918;12.530;2022-12-07T02:56:49;11.03;;;5.77;;
13425;SDS011;6785;57.918;12.530;2022-12-07T02:59:22;10.03;;;5.60;;
13425;SDS011;6785;57.918;12.530;2022-12-07T03:02:04;10.67;;;5.40;;
13425;SDS011;6785;57.918;12.530;2022-12-07T03:04:43;11.57;;;6.43;;
13425;SDS011;6785;57.918;12.530;2022-12-07T03:07:17;11.67;;;6.27;;
13425;SDS011;6785;57.918;12.530;2022-12-07T03:09:51;11.63;;;5.83;;
13425;SDS011;6785;57.918;12.530;2022-12-07T03:12:26;9.27;;;5.60;;
13425;SDS011;6785;57.918;12.530;2022-12-07T03:15:00;11.67;;;5.80;;
13425;SDS011;6785;57.918;12.530;2022-12-07T03:17:31;11.70;;;6.13;;
13425;SDS011;6785;57.918;12.530;2022-12-07T03:20:03;8.87;;;5.13;;
13425;SDS011;6785;57.918;12.530;2022-12-07T03:22:33;10.07;;;5.70;;
13425;SDS011;6785;57.918;12.530;2022-12-07T03:25:02;14.10;;;5.97;;
13425;SDS011;6785;57.918;12.530;2022-12-07T03:27:34;14.07;;;5.50;;
13425;SDS011;6785;57.918;12.530;2022-12-07T03:30:07;10.47;;;5.67;;
13425;SDS011;6785;57.918;12.530;2022-12-07T03:32:37;10.33;;;6.07;;
13425;SDS011;6785;57.918;12.530;2022-12-07T03:35:09;9.57;;;5.83;;
13425;SDS011;6785;57.918;12.530;2022-12-07T03:37:41;11.17;;;5.70;;
13425;SDS011;6785;57.918;12.530;2022-12-07T03:40:13;8.90;;;5.33;;
13425;SDS011;6785;57.918;12.530;2022-12-07T03:42:44;9.43;;;5.60;;
13425;SDS011;6785;57.918;12.530;2022-12-07T03:45:14;9.77;;;5.50;;
13425;SDS011;6785;57.918;12.530;2022-12-07T03:47:42;12.87;;;5.50;;
13425;SDS011;6785;57.918;12.530;2022-12-07T03:50:14;12.13;;;5.73;;
13425;SDS011;6785;57.918;12.530;2022-12-07T03:52:50;10.73;;;5.63;;
13425;SDS011;6785;57.918;12.530;2022-12-07T03:55:22;10.93;;;5.20;;
13425;SDS011;6785;57.918;12.530;2022-12-07T03:57:54;14.57;;;6.43;;
13425;SDS011;6785;57.918;12.530;2022-12-07T04:00:25;12.03;;;5.90;;
13425;SDS011;6785;57.918;12.530;2022-12-07T04:02:52;11.33;;;5.90;;
13425;SDS011;6785;57.918;12.530;2022-12-07T04:05:20;7.87;;;5.13;;
13425;SDS011;6785;57.918;12.530;2022-12-07T04:07:47;12.03;;;5.40;;
13425;SDS011;6785;57.918;12.530;2022-12-07T04:10:14;10.30;;;5.50;;
13425;SDS011;6785;57.918;12.530;2022-12-07T04:12:41;9.67;;;5.33;;
13425;SDS011;6785;57.918;12.530;2022-12-07T04:15:08;7.47;;;4.60;;
13425;SDS011;6785;57.918;12.530;2022-12-07T04:17:37;11.20;;;6.10;;
13425;SDS011;6785;57.918;12.530;2022-12-07T04:20:04;9.37;;;5.20;;
13425;SDS011;6785;57.918;12.530;2022-12-07T04:22:32;12.43;;;5.53;;
13425;SDS011;6785;57.918;12.530;2022-12-07T04:24:59;13.77;;;5.67;;
13425;SDS011;6785;57.918;12.530;2022-12-07T04:27:26;9.30;;;4.80;;
13425;SDS011;6785;57.918;12.530;2022-12-07T04:29:52;10.27;;;5.60;;
13425;SDS011;6785;57.918;12.530;2022-12-07T04:32:20;8.57;;;5.03;;
13425;SDS011;6785;57.918;12.530;2022-12-07T04:34:48;11.07;;;5.30;;
13425;SDS011;6785;57.918;12.530;2022-12-07T04:37:15;8.97;;;5.40;;
13425;SDS011;6785;57.918;12.530;2022-12-07T04:39:42;8.20;;;4.83;;
13425;SDS011;6785;57.918;12.530;2022-12-07T04:42:09;9.07;;;4.60;;
13425;SDS011;6785;57.918;12.530;2022-12-07T04:44:37;12.10;;;5.03;;
13425;SDS011;6785;57.918;12.530;2022-12-07T04:47:04;7.50;;;4.10;;
13425;SDS011;6785;57.918;12.530;2022-12-07T04:49:31;9.00;;;4.83;;
13425;SDS011;6785;57.918;12.530;2022-12-07T04:51:59;10.00;;;4.33;;
13425;SDS011;6785;57.918;12.530;2022-12-07T04:54:26;9.73;;;4.93;;
13425;SDS011;6785;57.918;12.530;2022-12-07T04:56:53;58.77;;;6.80;;
13425;SDS011;6785;57.918;12.530;2022-12-07T04:59:19;9.53;;;4.67;;
13425;SDS011;6785;57.918;12.530;2022-12-07T05:01:46;7.67;;;4.40;;
13425;SDS011;6785;57.918;12.530;2022-12-07T05:04:13;6.63;;;3.80;;
13425;SDS011;6785;57.918;12.530;2022-12-07T05:06:41;7.57;;;4.57;;
13425;SDS011;6785;57.918;12.530;2022-12-07T05:09:09;8.27;;;4.90;;
13425;SDS011;6785;57.918;12.530;2022-12-07T05:11:35;7.43;;;4.07;;
13425;SDS011;6785;57.918;12.530;2022-12-07T05:14:06;11.27;;;4.63;;
13425;SDS011;6785;57.918;12.530;2022-12-07T05:16:36;11.50;;;4.93;;
13425;SDS011;6785;57.918;12.530;2022-12-07T05:19:03;8.90;;;4.20;;
13425;SDS011;6785;57.918;12.530;2022-12-07T05:21:30;15.70;;;4.63;;
13425;SDS011;6785;57.918;12.530;2022-12-07T05:23:57;6.73;;;4.13;;
13425;SDS011;6785;57.918;12.530;2022-12-07T05:26:25;7.37;;;4.43;;
13425;SDS011;6785;57.918;12.530;2022-12-07T05:28:52;10.50;;;4.70;;
13425;SDS011;6785;57.918;12.530;2022-12-07T05:31:21;11.00;;;4.80;;
13425;SDS011;6785;57.918;12.530;2022-12-07T05:33:48;8.10;;;4.47;;
13425;SDS011;6785;57.918;12.530;2022-12-07T05:36:15;5.80;;;3.97;;
13425;SDS011;6785;57.918;12.530;2022-12-07T05:38:42;9.67;;;4.63;;
13425;SDS011;6785;57.918;12.530;2022-12-07T05:41:08;7.13;;;4.33;;
13425;SDS011;6785;57.918;12.530;2022-12-07T05:44:00;6.03;;;4.07;;
13425;SDS011;6785;57.918;12.530;2022-12-07T05:46:27;7.87;;;4.00;;
13425;SDS011;6785;57.918;12.530;2022-12-07T05:48:54;12.97;;;4.57;;
13425;SDS011;6785;57.918;12.530;2022-12-07T05:51:21;7.70;;;4.33;;
13425;SDS011;6785;57.918;12.530;2022-12-07T05:53:47;7.93;;;4.43;;
13425;SDS011;6785;57.918;12.530;2022-12-07T05:56:14;9.07;;;4.63;;
13425;SDS011;6785;57.918;12.530;2022-12-07T05:58:41;8.70;;;3.93;;
13425;SDS011;6785;57.918;12.530;2022-12-07T06:01:27;11.23;;;5.00;;
13425;SDS011;6785;57.918;12.530;2022-12-07T06:03:54;9.07;;;4.63;;
13425;SDS011;6785;57.918;12.530;2022-12-07T06:06:20;8.77;;;4.53;;
13425;SDS011;6785;57.918;12.530;2022-12-07T06:08:47;9.13;;;4.10;;
13425;SDS011;6785;57.918;12.530;2022-12-07T06:11:14;13.53;;;5.20;;
13425;SDS011;6785;57.918;12.530;2022-12-07T06:13:59;18.50;;;8.30;;
13425;SDS011;6785;57.918;12.530;2022-12-07T06:16:27;14.80;;;6.13;;
13425;SDS011;6785;57.918;12.530;2022-12-07T06:18:53;10.23;;;5.10;;
13425;SDS011;6785;57.918;12.530;2022-12-07T06:21:20;8.80;;;4.60;;
13425;SDS011;6785;57.918;12.530;2022-12-07T06:23:47;10.77;;;4.83;;
13425;SDS011;6785;57.918;12.530;2022-12-07T06:26:13;8.07;;;4.90;;
13425;SDS011;6785;57.918;12.530;2022-12-07T06:28:40;6.97;;;4.37;;
13425;SDS011;6785;57.918;12.530;2022-12-07T06:31:07;10.83;;;4.30;;
13425;SDS011;6785;57.918;12.530;2022-12-07T06:33:36;9.60;;;4.67;;
13425;SDS011;6785;57.918;12.530;2022-12-07T06:36:03;23.00;;;10.17;;
13425;SDS011;6785;57.918;12.530;2022-12-07T06:38:30;16.47;;;7.47;;
13425;SDS011;6785;57.918;12.530;2022-12-07T06:40:57;15.27;;;7.33;;
13425;SDS011;6785;57.918;12.530;2022-12-07T06:43:23;11.03;;;5.70;;
13425;SDS011;6785;57.918;12.530;2022-12-07T06:45:50;14.43;;;7.73;;
13425;SDS011;6785;57.918;12.530;2022-12-07T06:48:17;7.10;;;3.57;;
13425;SDS011;6785;57.918;12.530;2022-12-07T06:50:45;7.30;;;3.80;;
13425;SDS011;6785;57.918;12.530;2022-12-07T06:53:12;16.13;;;6.50;;
13425;SDS011;6785;57.918;12.530;2022-12-07T06:55:39;9.53;;;4.67;;
13425;SDS011;6785;57.918;12.530;2022-12-07T06:58:06;7.53;;;4.20;;
13425;SDS011;6785;57.918;12.530;2022-12-07T07:00:33;6.23;;;3.90;;
13425;SDS011;6785;57.918;12.530;2022-12-07T07:03:00;6.97;;;3.33;;
13425;SDS011;6785;57.918;12.530;2022-12-07T07:05:26;7.63;;;3.33;;
13425;SDS011;6785;57.918;12.530;2022-12-07T07:07:55;8.10;;;3.73;;
13425;SDS011;6785;57.918;12.530;2022-12-07T07:10:21;7.00;;;3.27;;
13425;SDS011;6785;57.918;12.530;2022-12-07T07:12:48;3.90;;;2.50;;
13425;SDS011;6785;57.918;12.530;2022-12-07T07:15:15;10.70;;;2.77;;
13425;SDS011;6785;57.918;12.530;2022-12-07T07:17:42;3.07;;;2.30;;
13425;SDS011;6785;57.918;12.530;2022-12-07T07:20:09;5.53;;;2.97;;
13425;SDS011;6785;57.918;12.530;2022-12-07T07:22:37;4.43;;;2.77;;
13425;SDS011;6785;57.918;12.530;2022-12-07T07:25:05;3.80;;;2.53;;
13425;SDS011;6785;57.918;12.530;2022-12-07T07:27:32;3.47;;;2.70;;
13425;SDS011;6785;57.918;12.530;2022-12-07T07:29:59;6.67;;;2.93;;
13425;SDS011;6785;57.918;12.530;2022-12-07T07:32:26;5.30;;;2.77;;
13425;SDS011;6785;57.918;12.530;2022-12-07T07:34:53;9.37;;;2.90;;
13425;SDS011;6785;57.918;12.530;2022-12-07T07:37:19;4.47;;;2.50;;
13425;SDS011;6785;57.918;12.530;2022-12-07T07:39:46;4.37;;;2.63;;
13425;SDS011;6785;57.918;12.530;2022-12-07T07:42:14;7.00;;;2.90;;
13425;SDS011;6785;57.918;12.530;2022-12-07T07:44:41;10.67;;;3.17;;
13425;SDS011;6785;57.918;12.530;2022-12-07T07:47:08;3.17;;;2.10;;
13425;SDS011;6785;57.918;12.530;2022-12-07T07:49:34;5.23;;;2.80;;
13425;SDS011;6785;57.918;12.530;2022-12-07T07:52:01;5.20;;;2.20;;
13425;SDS011;6785;57.918;12.530;2022-12-07T07:54:28;3.70;;;1.90;;
13425;SDS011;6785;57.918;12.530;2022-12-07T07:56:55;3.33;;;1.60;;
13425;SDS011;6785;57.918;12.530;2022-12-07T07:59:23;4.33;;;2.07;;
13425;SDS011;6785;57.918;12.530;2022-12-07T08:01:50;2.10;;;1.70;;
13425;SDS011;6785;57.918;12.530;2022-12-07T08:04:17;3.33;;;1.60;;
13425;SDS011;6785;57.918;12.530;2022-12-07T08:06:44;2.03;;;1.40;;
13425;SDS011;6785;57.918;12.530;2022-12-07T08:09:10;2.67;;;1.70;;
13425;SDS011;6785;57.918;12.530;2022-12-07T08:11:38;2.60;;;1.60;;
13425;SDS011;6785;57.918;12.530;2022-12-07T08:14:05;1.63;;;1.30;;
13425;SDS011;6785;57.918;12.530;2022-12-07T08:16:33;3.03;;;1.50;;
13425;SDS011;6785;57.918;12.530;2022-12-07T08:18:59;1.77;;;1.60;;
13425;SDS011;6785;57.918;12.530;2022-12-07T08:21:26;4.97;;;1.80;;
13425;SDS011;6785;57.918;12.530;2022-12-07T08:23:53;1.90;;;1.70;;
13425;SDS011;6785;57.918;12.530;2022-12-07T08:26:20;3.33;;;1.70;;
13425;SDS011;6785;57.918;12.530;2022-12-07T08:28:46;2.53;;;1.50;;
13425;SDS011;6785;57.918;12.530;2022-12-07T08:31:14;1.40;;;1.30;;
13425;SDS011;6785;57.918;12.530;2022-12-07T08:33:44;3.53;;;1.40;;
13425;SDS011;6785;57.918;12.530;2022-12-07T08:36:11;1.57;;;1.47;;
13425;SDS011;6785;57.918;12.530;2022-12-07T08:38:39;2.30;;;1.53;;
13425;SDS011;6785;57.918;12.530;2022-12-07T08:41:07;2.33;;;1.70;;
13425;SDS011;6785;57.918;12.530;2022-12-07T08:43:34;3.53;;;1.50;;
13425;SDS011;6785;57.918;12.530;2022-12-07T08:46:03;2.03;;;1.50;;
13425;SDS011;6785;57.918;12.530;2022-12-07T08:48:37;2.63;;;1.97;;
13425;SDS011;6785;57.918;12.530;2022-12-07T08:51:08;2.33;;;1.93;;
13425;SDS011;6785;57.918;12.530;2022-12-07T08:53:35;3.53;;;1.50;;
13425;SDS011;6785;57.918;12.530;2022-12-07T08:56:04;3.43;;;1.63;;
13425;SDS011;6785;57.918;12.530;2022-12-07T08:58:32;2.07;;;1.70;;
13425;SDS011;6785;57.918;12.530;2022-12-07T09:01:00;1.80;;;1.50;;
13425;SDS011;6785;57.918;12.530;2022-12-07T09:03:26;1.40;;;1.30;;
13425;SDS011;6785;57.918;12.530;2022-12-07T09:05:54;1.87;;;1.47;;
13425;SDS011;6785;57.918;12.530;2022-12-07T09:08:23;3.77;;;1.87;;
13425;SDS011;6785;57.918;12.530;2022-12-07T09:10:54;4.27;;;1.70;;
13425;SDS011;6785;57.918;12.530;2022-12-07T09:13:21;1.70;;;1.37;;
13425;SDS011;6785;57.918;12.530;2022-12-07T09:15:48;2.23;;;1.70;;
13425;SDS011;6785;57.918;12.530;2022-12-07T09:18:14;1.40;;;1.30;;
13425;SDS011;6785;57.918;12.530;2022-12-07T09:20:41;1.77;;;1.40;;
13425;SDS011;6785;57.918;12.530;2022-12-07T09:23:08;2.10;;;1.30;;
13425;SDS011;6785;57.918;12.530;2022-12-07T09:25:36;1.47;;;1.13;;
13425;SDS011;6785;57.918;12.530;2022-12-07T09:28:03;4.00;;;1.93;;
13425;SDS011;6785;57.918;12.530;2022-12-07T09:30:30;2.50;;;1.73;;
13425;SDS011;6785;57.918;12.530;2022-12-07T09:32:57;2.27;;;1.33;;
13425;SDS011;6785;57.918;12.530;2022-12-07T09:35:24;4.03;;;1.30;;
13425;SDS011;6785;57.918;12.530;2022-12-07T09:37:51;1.87;;;1.40;;
13425;SDS011;6785;57.918;12.530;2022-12-07T09:40:19;2.53;;;1.60;;
13425;SDS011;6785;57.918;12.530;2022-12-07T09:42:49;2.90;;;2.03;;
13425;SDS011;6785;57.918;12.530;2022-12-07T09:45:18;5.63;;;4.30;;
13425;SDS011;6785;57.918;12.530;2022-12-07T09:47:48;3.43;;;1.80;;
13425;SDS011;6785;57.918;12.530;2022-12-07T09:50:16;5.30;;;1.70;;
13425;SDS011;6785;57.918;12.530;2022-12-07T09:52:46;2.23;;;1.67;;
13425;SDS011;6785;57.918;12.530;2022-12-07T09:55:15;1.97;;;1.60;;
13425;SDS011;6785;57.918;12.530;2022-12-07T09:57:45;3.67;;;1.53;;
13425;SDS011;6785;57.918;12.530;2022-12-07T10:00:15;1.93;;;1.60;;
13425;SDS011;6785;57.918;12.530;2022-12-07T10:02:44;1.67;;;1.37;;
13425;SDS011;6785;57.918;12.530;2022-12-07T10:05:13;2.90;;;1.47;;
13425;SDS011;6785;57.918;12.530;2022-12-07T10:07:43;1.90;;;1.40;;
13425;SDS011;6785;57.918;12.530;2022-12-07T10:10:13;3.27;;;1.43;;
13425;SDS011;6785;57.918;12.530;2022-12-07T10:12:52;1.60;;;1.50;;
13425;SDS011;6785;57.918;12.530;2022-12-07T10:15:22;1.83;;;1.30;;
13425;SDS011;6785;57.918;12.530;2022-12-07T10:17:49;2.03;;;1.47;;
13425;SDS011;6785;57.918;12.530;2022-12-07T10:20:21;1.70;;;1.50;;
13425;SDS011;6785;57.918;12.530;2022-12-07T10:22:59;2.30;;;1.83;;
13425;SDS011;6785;57.918;12.530;2022-12-07T10:25:29;3.17;;;2.10;;
13425;SDS011;6785;57.918;12.530;2022-12-07T10:27:59;2.93;;;1.77;;
13425;SDS011;6785;57.918;12.530;2022-12-07T10:30:29;2.97;;;1.80;;
13425;SDS011;6785;57.918;12.530;2022-12-07T10:32:57;1.90;;;1.60;;
13425;SDS011;6785;57.918;12.530;2022-12-07T10:35:25;12.83;;;3.50;;
13425;SDS011;6785;57.918;12.530;2022-12-07T10:37:53;3.77;;;2.80;;
13425;SDS011;6785;57.918;12.530;2022-12-07T10:40:29;2.43;;;1.67;;
13425;SDS011;6785;57.918;12.530;2022-12-07T10:43:02;3.33;;;2.17;;
13425;SDS011;6785;57.918;12.530;2022-12-07T10:45:32;3.93;;;2.70;;
13425;SDS011;6785;57.918;12.530;2022-12-07T10:48:02;2.83;;;1.40;;
13425;SDS011;6785;57.918;12.530;2022-12-07T10:50:49;2.23;;;1.50;;
13425;SDS011;6785;57.918;12.530;2022-12-07T10:53:27;3.63;;;2.33;;
13425;SDS011;6785;57.918;12.530;2022-12-07T10:56:06;4.97;;;2.60;;
13425;SDS011;6785;57.918;12.530;2022-12-07T10:58:49;5.33;;;2.00;;
13425;SDS011;6785;57.918;12.530;2022-12-07T11:01:29;4.30;;;2.33;;
13425;SDS011;6785;57.918;12.530;2022-12-07T11:04:03;2.43;;;2.13;;
13425;SDS011;6785;57.918;12.530;2022-12-07T11:06:45;3.37;;;2.13;;
13425;SDS011;6785;57.918;12.530;2022-12-07T11:09:34;4.20;;;2.10;;
13425;SDS011;6785;57.918;12.530;2022-12-07T11:12:25;2.83;;;1.90;;
13425;SDS011;6785;57.918;12.530;2022-12-07T11:15:01;3.70;;;2.67;;
13425;SDS011;6785;57.918;12.530;2022-12-07T11:17:36;6.70;;;4.17;;
13425;SDS011;6785;57.918;12.530;2022-12-07T11:20:18;3.53;;;2.53;;
13425;SDS011;6785;57.918;12.530;2022-12-07T11:23:02;3.60;;;1.80;;
13425;SDS011;6785;57.918;12.530;2022-12-07T11:25:38;4.10;;;2.23;;
13425;SDS011;6785;57.918;12.530;2022-12-07T11:28:18;2.73;;;2.03;;
13425;SDS011;6785;57.918;12.530;2022-12-07T11:30:57;4.37;;;2.27;;
13425;SDS011;6785;57.918;12.530;2022-12-07T11:33:36;4.97;;;2.30;;
13425;SDS011;6785;57.918;12.530;2022-12-07T11:36:11;5.13;;;1.83;;
13425;SDS011;6785;57.918;12.530;2022-12-07T11:38:49;5.07;;;2.63;;
13425;SDS011;6785;57.918;12.530;2022-12-07T11:41:20;3.70;;;3.00;;
13425;SDS011;6785;57.918;12.530;2022-12-07T11:43:54;8.30;;;4.77;;
13425;SDS011;6785;57.918;12.530;2022-12-07T11:46:25;6.90;;;4.07;;
13425;SDS011;6785;57.918;12.530;2022-12-07T11:48:57;10.17;;;4.73;;
13425;SDS011;6785;57.918;12.530;2022-12-07T11:51:29;6.33;;;3.50;;
13425;SDS011;6785;57.918;12.530;2022-12-07T11:54:01;4.70;;;2.17;;
13425;SDS011;6785;57.918;12.530;2022-12-07T11:56:36;7.77;;;3.13;;
13425;SDS011;6785;57.918;12.530;2022-12-07T11:59:06;4.83;;;3.23;;
13425;SDS011;6785;57.918;12.530;2022-12-07T12:01:42;3.20;;;2.37;;
13425;SDS011;6785;57.918;12.530;2022-12-07T12:04:22;2.90;;;2.10;;
13425;SDS011;6785;57.918;12.530;2022-12-07T12:06:56;2.27;;;2.00;;
13425;SDS011;6785;57.918;12.530;2022-12-07T12:09:24;5.77;;;2.30;;
13425;SDS011;6785;57.918;12.530;2022-12-07T12:12:07;3.33;;;2.30;;
13425;SDS011;6785;57.918;12.530;2022-12-07T12:14:51;3.30;;;2.40;;
13425;SDS011;6785;57.918;12.530;2022-12-07T12:17:40;11.13;;;2.63;;
13425;SDS011;6785;57.918;12.530;2022-12-07T12:20:27;2.70;;;2.40;;
13425;SDS011;6785;57.918;12.530;2022-12-07T12:22:58;6.77;;;2.37;;
13425;SDS011;6785;57.918;12.530;2022-12-07T12:25:34;5.33;;;3.00;;
13425;SDS011;6785;57.918;12.530;2022-12-07T12:28:05;3.30;;;1.80;;
13425;SDS011;6785;57.918;12.530;2022-12-07T12:30:42;1.83;;;1.60;;
13425;SDS011;6785;57.918;12.530;2022-12-07T12:33:12;2.77;;;1.90;;
13425;SDS011;6785;57.918;12.530;2022-12-07T12:35:45;3.90;;;2.00;;
13425;SDS011;6785;57.918;12.530;2022-12-07T12:38:31;7.20;;;2.73;;
13425;SDS011;6785;57.918;12.530;2022-12-07T12:40:59;4.97;;;2.90;;
13425;SDS011;6785;57.918;12.530;2022-12-07T12:43:41;4.57;;;2.80;;
13425;SDS011;6785;57.918;12.530;2022-12-07T12:49:30;3.50;;;2.27;;
13425;SDS011;6785;57.918;12.530;2022-12-07T12:55:16;3.33;;;2.07;;
13425;SDS011;6785;57.918;12.530;2022-12-07T12:57:47;4.23;;;2.40;;
13425;SDS011;6785;57.918;12.530;2022-12-07T13:00:35;3.97;;;2.57;;
13425;SDS011;6785;57.918;12.530;2022-12-07T13:03:04;3.43;;;2.40;;
13425;SDS011;6785;57.918;12.530;2022-12-07T13:05:31;3.40;;;2.40;;
13425;SDS011;6785;57.918;12.530;2022-12-07T13:08:01;2.57;;;2.07;;
13425;SDS011;6785;57.918;12.530;2022-12-07T13:10:33;2.47;;;2.10;;
13425;SDS011;6785;57.918;12.530;2022-12-07T13:13:28;5.37;;;2.20;;
13425;SDS011;6785;57.918;12.530;2022-12-07T13:18:58;3.97;;;2.30;;
13425;SDS011;6785;57.918;12.530;2022-12-07T13:21:40;3.07;;;1.60;;
13425;SDS011;6785;57.918;12.530;2022-12-07T13:24:07;3.87;;;1.70;;
13425;SDS011;6785;57.918;12.530;2022-12-07T13:26:39;4.90;;;1.97;;
13425;SDS011;6785;57.918;12.530;2022-12-07T13:29:10;2.10;;;1.90;;
13425;SDS011;6785;57.918;12.530;2022-12-07T13:31:39;2.70;;;1.80;;
13425;SDS011;6785;57.918;12.530;2022-12-07T13:36:57;2.30;;;1.63;;
13425;SDS011;6785;57.918;12.530;2022-12-07T13:39:27;3.40;;;1.50;;
13425;SDS011;6785;57.918;12.530;2022-12-07T13:41:55;2.07;;;1.80;;
13425;SDS011;6785;57.918;12.530;2022-12-07T13:44:23;3.20;;;1.40;;
13425;SDS011;6785;57.918;12.530;2022-12-07T13:46:59;2.57;;;1.33;;
13425;SDS011;6785;57.918;12.530;2022-12-07T13:49:37;3.97;;;1.33;;
13425;SDS011;6785;57.918;12.530;2022-12-07T13:52:14;2.13;;;1.60;;
13425;SDS011;6785;57.918;12.530;2022-12-07T13:54:46;4.20;;;1.90;;
13425;SDS011;6785;57.918;12.530;2022-12-07T13:57:13;1.90;;;1.67;;
13425;SDS011;6785;57.918;12.530;2022-12-07T13:59:40;3.27;;;1.20;;
13425;SDS011;6785;57.918;12.530;2022-12-07T14:02:16;4.37;;;1.40;;
13425;SDS011;6785;57.918;12.530;2022-12-07T14:04:48;1.90;;;1.60;;
13425;SDS011;6785;57.918;12.530;2022-12-07T14:07:20;2.63;;;1.63;;
13425;SDS011;6785;57.918;12.530;2022-12-07T14:09:53;4.17;;;1.70;;
13425;SDS011;6785;57.918;12.530;2022-12-07T14:12:21;2.20;;;1.50;;
13425;SDS011;6785;57.918;12.530;2022-12-07T14:14:48;6.53;;;2.17;;
13425;SDS011;6785;57.918;12.530;2022-12-07T14:17:16;2.93;;;2.10;;
13425;SDS011;6785;57.918;12.530;2022-12-07T14:19:46;2.70;;;2.00;;
13425;SDS011;6785;57.918;12.530;2022-12-07T14:22:24;3.47;;;2.40;;
13425;SDS011;6785;57.918;12.530;2022-12-07T14:25:00;2.77;;;1.70;;
13425;SDS011;6785;57.918;12.530;2022-12-07T14:27:31;5.00;;;1.80;;
13425;SDS011;6785;57.918;12.530;2022-12-07T14:30:01;2.33;;;1.60;;
13425;SDS011;6785;57.918;12.530;2022-12-07T14:32:29;3.00;;;1.60;;
13425;SDS011;6785;57.918;12.530;2022-12-07T14:34:58;4.40;;;1.80;;
13425;SDS011;6785;57.918;12.530;2022-12-07T14:37:26;3.27;;;2.00;;
13425;SDS011;6785;57.918;12.530;2022-12-07T14:39:55;3.17;;;1.60;;
13425;SDS011;6785;57.918;12.530;2022-12-07T14:42:23;3.67;;;2.03;;
13425;SDS011;6785;57.918;12.530;2022-12-07T14:44:53;3.47;;;2.00;;
13425;SDS011;6785;57.918;12.530;2022-12-07T14:47:19;5.73;;;3.07;;
13425;SDS011;6785;57.918;12.530;2022-12-07T14:49:46;7.30;;;4.93;;
13425;SDS011;6785;57.918;12.530;2022-12-07T14:52:15;18.00;;;9.80;;
13425;SDS011;6785;57.918;12.530;2022-12-07T14:54:45;14.93;;;8.73;;
13425;SDS011;6785;57.918;12.530;2022-12-07T14:57:11;6.43;;;4.63;;
13425;SDS011;6785;57.918;12.530;2022-12-07T14:59:38;5.57;;;4.10;;
13425;SDS011;6785;57.918;12.530;2022-12-07T15:02:09;10.60;;;4.17;;
13425;SDS011;6785;57.918;12.530;2022-12-07T15:04:37;3.83;;;2.67;;
13425;SDS011;6785;57.918;12.530;2022-12-07T15:07:05;3.83;;;2.33;;
13425;SDS011;6785;57.918;12.530;2022-12-07T15:09:38;7.00;;;2.10;;
13425;SDS011;6785;57.918;12.530;2022-12-07T15:12:04;4.47;;;2.23;;
13425;SDS011;6785;57.918;12.530;2022-12-07T15:14:31;4.27;;;2.50;;
13425;SDS011;6785;57.918;12.530;2022-12-07T15:16:58;9.23;;;2.70;;
13425;SDS011;6785;57.918;12.530;2022-12-07T15:19:25;3.10;;;2.30;;
13425;SDS011;6785;57.918;12.530;2022-12-07T15:21:52;2.67;;;2.10;;